createdAt,value
2024-02-17T00:03:00.808Z,25.57
2024-02-17T00:06:04.706Z,25.10
2024-02-17T00:09:09.197Z,27.17
2024-02-17T00:12:13.289Z,25.50
2024-02-17T00:15:17.343Z,25.80
2024-02-17T00:18:24.382Z,27.10
2024-02-17T00:21:28.953Z,28.00
2024-02-17T00:24:33.034Z,28.17
2024-02-17T00:27:37.256Z,25.60
2024-02-17T00:30:41.827Z,24.13
2024-02-17T00:33:46.228Z,22.80
2024-02-17T00:36:50.653Z,22.37
2024-02-17T00:39:54.766Z,22.23
2024-02-17T00:42:58.553Z,22.23
2024-02-17T00:46:03.195Z,23.37
2024-02-17T00:49:09.205Z,21.10
2024-02-17T00:52:13.588Z,23.70
2024-02-17T00:55:17.771Z,23.53
2024-02-17T00:58:21.841Z,26.40
2024-02-17T01:01:33.566Z,24.17
2024-02-17T01:04:42.979Z,23.90
2024-02-17T01:07:46.912Z,23.53
2024-02-17T01:10:51.532Z,24.20
2024-02-17T01:13:55.704Z,23.00
2024-02-17T01:16:59.821Z,22.70
2024-02-17T01:20:04.660Z,22.63
2024-02-17T01:23:08.550Z,22.50
2024-02-17T01:26:13.002Z,22.20
2024-02-17T01:29:20.020Z,22.73
2024-02-17T01:32:24.062Z,24.07
2024-02-17T01:35:28.054Z,23.23
2024-02-17T01:38:31.946Z,22.20
2024-02-17T01:41:35.916Z,23.63
2024-02-17T01:44:40.417Z,23.17
2024-02-17T01:47:46.006Z,24.67
2024-02-17T01:50:50.469Z,24.90
2024-02-17T01:53:55.232Z,25.10
2024-02-17T01:57:01.133Z,27.60
2024-02-17T02:00:05.909Z,23.43
2024-02-17T02:03:09.972Z,25.87
2024-02-17T02:06:14.206Z,27.70
2024-02-17T02:09:24.899Z,26.17
2024-02-17T02:12:29.538Z,26.17
2024-02-17T02:15:41.114Z,27.20
2024-02-17T02:18:53.209Z,29.90
2024-02-17T02:21:57.656Z,27.80
2024-02-17T02:25:02.373Z,28.70
2024-02-17T02:28:06.908Z,29.27
2024-02-17T02:31:11.458Z,29.70
2024-02-17T02:34:15.483Z,29.03
2024-02-17T02:37:19.863Z,31.53
2024-02-17T02:40:24.293Z,28.87
2024-02-17T02:43:28.423Z,30.20
2024-02-17T02:46:33.869Z,32.10
2024-02-17T02:49:37.789Z,31.10
2024-02-17T02:52:41.614Z,31.70
2024-02-17T02:55:45.770Z,31.57
2024-02-17T02:58:50.341Z,32.93
2024-02-17T03:01:54.486Z,33.13
2024-02-17T03:04:58.250Z,33.13
2024-02-17T03:08:02.737Z,33.40
2024-02-17T03:11:14.595Z,32.60
2024-02-17T03:14:18.700Z,34.93
2024-02-17T03:17:23.040Z,32.87
2024-02-17T03:20:27.521Z,32.97
2024-02-17T03:23:32.222Z,30.97
2024-02-17T03:26:37.576Z,30.93
2024-02-17T03:29:41.710Z,30.07
2024-02-17T03:32:45.976Z,32.10
2024-02-17T03:35:49.945Z,30.37
2024-02-17T03:38:54.411Z,30.33
2024-02-17T03:41:58.312Z,29.90
2024-02-17T03:45:02.336Z,30.37
2024-02-17T03:48:07.369Z,28.93
2024-02-17T03:51:11.838Z,27.37
2024-02-17T03:54:16.563Z,26.47
2024-02-17T03:57:21.430Z,27.17
2024-02-17T04:00:25.465Z,25.40
2024-02-17T04:03:30.897Z,26.07
2024-02-17T04:06:35.344Z,26.00
2024-02-17T04:09:40.112Z,26.30
2024-02-17T04:12:44.321Z,26.57
2024-02-17T04:15:48.675Z,26.67
2024-02-17T04:18:53.138Z,25.50
2024-02-17T04:21:57.473Z,25.07
2024-02-17T04:25:01.538Z,23.10
2024-02-17T04:28:07.221Z,22.60
2024-02-17T04:31:11.345Z,26.47
2024-02-17T04:34:15.556Z,26.93
2024-02-17T04:37:20.220Z,24.60
2024-02-17T04:40:24.170Z,25.20
2024-02-17T04:43:28.180Z,25.13
2024-02-17T04:46:32.356Z,25.17
2024-02-17T04:49:36.851Z,25.10
2024-02-17T04:52:42.246Z,26.03
2024-02-17T04:55:46.214Z,26.93
2024-02-17T04:58:50.308Z,25.07
2024-02-17T05:01:54.166Z,27.40
2024-02-17T05:04:58.083Z,27.10
2024-02-17T05:08:02.405Z,23.73
2024-02-17T05:11:08.212Z,25.20
2024-02-17T05:14:16.948Z,25.67
2024-02-17T05:17:21.604Z,26.40
2024-02-17T05:20:25.695Z,26.37
2024-02-17T05:23:29.696Z,26.20
2024-02-17T05:26:35.151Z,27.23
2024-02-17T05:29:40.061Z,27.10
2024-02-17T05:32:44.969Z,27.40
2024-02-17T05:35:49.084Z,27.03
2024-02-17T05:38:53.015Z,27.63
2024-02-17T05:41:56.950Z,26.63
2024-02-17T05:45:01.158Z,26.03
2024-02-17T05:48:05.648Z,26.27
2024-02-17T05:51:09.696Z,27.93
2024-02-17T05:54:13.594Z,27.27
2024-02-17T05:57:17.791Z,26.37
2024-02-17T06:00:22.152Z,25.33
2024-02-17T06:03:27.045Z,28.10
2024-02-17T06:06:31.389Z,26.53
2024-02-17T06:09:35.775Z,25.63
2024-02-17T06:12:40.412Z,29.57
2024-02-17T06:15:44.922Z,27.80
2024-02-17T06:19:07.643Z,26.17
2024-02-17T06:22:11.795Z,27.53
2024-02-17T06:25:15.860Z,27.63
2024-02-17T06:28:20.863Z,27.77
2024-02-17T06:31:25.488Z,27.63
2024-02-17T06:34:29.556Z,27.27
2024-02-17T06:37:35.358Z,26.03
2024-02-17T06:40:39.727Z,27.30
2024-02-17T06:43:43.908Z,27.50
2024-02-17T06:46:47.728Z,27.87
2024-02-17T06:49:52.087Z,26.97
2024-02-17T06:52:56.357Z,27.20
2024-02-17T06:56:00.732Z,28.27
2024-02-17T06:59:04.488Z,29.40
2024-02-17T07:02:08.863Z,26.67
2024-02-17T07:05:15.090Z,27.50
2024-02-17T07:08:19.483Z,27.33
2024-02-17T07:11:24.051Z,27.13
2024-02-17T07:14:28.171Z,27.73
2024-02-17T07:17:33.553Z,26.83
2024-02-17T07:20:37.632Z,25.57
2024-02-17T07:23:41.705Z,27.33
2024-02-17T07:26:45.910Z,27.00
2024-02-17T07:29:49.952Z,28.47
2024-02-17T07:32:54.197Z,26.50
2024-02-17T07:35:58.543Z,25.97
2024-02-17T07:39:03.258Z,27.17
2024-02-17T07:42:08.486Z,27.53
2024-02-17T07:45:13.019Z,31.17
2024-02-17T07:48:17.421Z,30.20
2024-02-17T07:51:21.869Z,29.03
2024-02-17T07:54:26.112Z,30.07
2024-02-17T07:57:30.356Z,28.70
2024-02-17T08:00:34.848Z,30.70
2024-02-17T08:03:39.440Z,29.50
2024-02-17T08:06:43.633Z,31.10
2024-02-17T08:09:49.505Z,30.70
2024-02-17T08:12:54.267Z,32.70
2024-02-17T08:15:58.406Z,30.60
2024-02-17T08:19:02.645Z,30.90
2024-02-17T08:22:07.233Z,31.60
2024-02-17T08:25:11.241Z,29.27
2024-02-17T08:28:15.537Z,28.83
2024-02-17T08:31:19.737Z,30.50
2024-02-17T08:34:23.726Z,29.77
2024-02-17T08:37:27.651Z,29.67
2024-02-17T08:40:31.663Z,31.23
2024-02-17T08:43:35.758Z,30.20
2024-02-17T08:46:39.677Z,28.93
2024-02-17T08:49:43.827Z,31.10
2024-02-17T08:52:48.730Z,30.43
2024-02-17T08:55:53.159Z,31.73
2024-02-17T08:58:57.836Z,31.10
2024-02-17T09:02:01.680Z,31.63
2024-02-17T09:05:07.151Z,31.30
2024-02-17T09:08:11.342Z,32.97
2024-02-17T09:11:17.146Z,32.00
2024-02-17T09:14:21.940Z,32.37
2024-02-17T09:17:26.487Z,33.60
2024-02-17T09:20:30.468Z,34.23
2024-02-17T09:23:34.650Z,33.10
2024-02-17T09:26:38.701Z,31.80
2024-02-17T09:29:45.736Z,32.97
2024-02-17T09:32:50.160Z,30.07
2024-02-17T09:35:54.698Z,32.93
2024-02-17T09:38:58.835Z,32.50
2024-02-17T09:42:02.885Z,32.90
2024-02-17T09:45:07.331Z,33.60
2024-02-17T09:48:12.505Z,35.67
2024-02-17T09:51:18.698Z,33.07
2024-02-17T09:54:24.233Z,33.73
2024-02-17T09:57:37.632Z,33.93
2024-02-17T10:00:49.310Z,31.60
2024-02-17T10:03:54.473Z,32.37
2024-02-17T10:07:02.417Z,36.10
2024-02-17T10:10:07.013Z,32.73
2024-02-17T10:13:20.129Z,36.00
2024-02-17T10:16:24.514Z,35.53
2024-02-17T10:19:30.313Z,37.20
2024-02-17T10:22:34.515Z,37.53
2024-02-17T10:25:39.693Z,36.13
2024-02-17T10:28:43.598Z,36.40
2024-02-17T10:31:48.896Z,37.10
2024-02-17T10:34:53.407Z,36.80
2024-02-17T10:37:58.219Z,39.30
2024-02-17T10:41:02.343Z,39.10
2024-02-17T10:44:06.624Z,39.33
2024-02-17T10:47:10.554Z,38.17
2024-02-17T10:50:17.720Z,39.50
2024-02-17T10:53:29.200Z,41.10
2024-02-17T10:56:34.824Z,41.50
2024-02-17T10:59:39.682Z,38.10
2024-02-17T11:02:46.161Z,40.63
2024-02-17T11:05:54.143Z,43.27
2024-02-17T11:08:58.643Z,43.27
2024-02-17T11:12:35.922Z,40.67
2024-02-17T11:15:58.952Z,40.27
2024-02-17T11:19:03.153Z,40.87
2024-02-17T11:22:08.258Z,42.33
2024-02-17T11:25:12.882Z,43.77
2024-02-17T11:28:23.754Z,41.10
2024-02-17T11:31:28.812Z,41.57
2024-02-17T11:34:34.644Z,42.30
2024-02-17T11:37:40.765Z,41.80
2024-02-17T11:40:46.132Z,42.00
2024-02-17T11:43:50.690Z,40.73
2024-02-17T11:46:54.694Z,38.90
2024-02-17T11:50:14.342Z,41.13
2024-02-17T11:53:25.874Z,41.27
2024-02-17T11:56:31.188Z,41.50
2024-02-17T11:59:36.752Z,41.47
2024-02-17T12:02:42.065Z,40.70
2024-02-17T12:05:47.068Z,40.87
2024-02-17T12:08:51.404Z,41.27
2024-02-17T12:11:55.379Z,40.77
2024-02-17T12:15:02.095Z,39.93
2024-02-17T12:18:08.846Z,39.53
2024-02-17T12:21:14.615Z,37.73
2024-02-17T12:24:18.866Z,38.60
2024-02-17T12:27:23.661Z,37.67
2024-02-17T12:30:27.559Z,37.17
2024-02-17T12:33:32.266Z,38.57
2024-02-17T12:36:36.385Z,37.70
2024-02-17T12:39:40.875Z,38.50
2024-02-17T12:42:45.685Z,36.23
2024-02-17T12:45:50.516Z,37.37
2024-02-17T12:48:55.812Z,39.27
2024-02-17T12:52:00.735Z,37.20
2024-02-17T12:55:06.771Z,37.27
2024-02-17T12:58:12.113Z,37.60
2024-02-17T13:01:16.524Z,37.27
2024-02-17T13:04:21.082Z,35.50
2024-02-17T13:07:25.469Z,37.87
2024-02-17T13:10:32.233Z,36.80
2024-02-17T13:13:38.427Z,39.60
2024-02-17T13:16:42.948Z,34.73
2024-02-17T13:19:47.300Z,38.27
2024-02-17T13:22:51.738Z,35.80
2024-02-17T13:25:56.184Z,34.10
2024-02-17T13:29:00.437Z,37.30
2024-02-17T13:32:05.188Z,37.83
2024-02-17T13:35:12.918Z,35.90
2024-02-17T13:38:25.376Z,33.97
2024-02-17T13:41:34.799Z,37.03
2024-02-17T13:44:40.032Z,37.10
2024-02-17T13:47:44.432Z,35.07
2024-02-17T13:50:48.711Z,35.93
2024-02-17T13:53:53.621Z,36.50
2024-02-17T13:56:57.835Z,35.40
2024-02-17T14:00:04.740Z,37.13
2024-02-17T14:03:09.588Z,34.87
2024-02-17T14:06:15.747Z,35.77
2024-02-17T14:09:20.087Z,36.10
2024-02-17T14:12:24.856Z,36.20
2024-02-17T14:15:28.990Z,36.90
2024-02-17T14:18:32.898Z,38.53
2024-02-17T14:21:37.089Z,35.03
2024-02-17T14:24:41.156Z,36.20
2024-02-17T14:27:45.162Z,36.17
2024-02-17T14:30:50.583Z,37.30
2024-02-17T14:33:54.968Z,35.47
2024-02-17T14:37:00.301Z,35.40
2024-02-17T14:40:05.023Z,35.87
2024-02-17T14:43:09.163Z,33.70
2024-02-17T14:46:13.267Z,34.63
2024-02-17T14:49:18.272Z,35.27
2024-02-17T14:52:22.549Z,35.47
2024-02-17T14:55:26.712Z,34.20
2024-02-17T14:58:30.701Z,34.87
2024-02-17T15:01:35.196Z,31.80
2024-02-17T15:04:39.350Z,33.03
2024-02-17T15:07:44.265Z,32.63
2024-02-17T15:10:48.471Z,30.10
2024-02-17T15:13:55.380Z,33.87
2024-02-17T15:16:59.568Z,30.27
2024-02-17T15:20:04.799Z,31.10
2024-02-17T15:23:08.838Z,33.50
2024-02-17T15:26:15.699Z,33.23
2024-02-17T15:29:19.802Z,32.43
2024-02-17T15:32:23.869Z,31.97
2024-02-17T15:35:27.940Z,33.07
2024-02-17T15:38:32.057Z,32.20
2024-02-17T15:41:35.962Z,31.20
2024-02-17T15:44:41.291Z,32.60
2024-02-17T15:47:47.004Z,32.90
2024-02-17T15:50:54.507Z,32.33
2024-02-17T15:53:58.593Z,29.43
2024-02-17T15:57:02.729Z,29.47
2024-02-17T16:00:11.200Z,29.20
2024-02-17T16:03:15.599Z,30.30
2024-02-17T16:06:19.981Z,29.77
2024-02-17T16:09:24.530Z,28.80
2024-02-17T16:12:28.599Z,29.53
2024-02-17T16:15:33.433Z,28.40
2024-02-17T16:18:39.904Z,27.67
2024-02-17T16:21:47.484Z,28.70
2024-02-17T16:24:51.476Z,28.53
2024-02-17T16:27:55.731Z,28.30
2024-02-17T16:31:00.129Z,29.53
2024-02-17T16:34:04.476Z,29.00
2024-02-17T16:37:09.099Z,27.00
2024-02-17T16:40:13.049Z,26.70
2024-02-17T16:43:17.708Z,26.27
2024-02-17T16:46:22.900Z,28.23
2024-02-17T16:49:27.251Z,26.90
2024-02-17T16:52:31.599Z,28.00
2024-02-17T16:55:35.666Z,29.33
2024-02-17T16:58:40.032Z,29.37
2024-02-17T17:01:43.968Z,29.20
2024-02-17T17:04:49.037Z,29.57
2024-02-17T17:07:53.200Z,28.50
2024-02-17T17:10:57.327Z,29.07
2024-02-17T17:14:01.812Z,29.13
2024-02-17T17:17:05.792Z,27.90
2024-02-17T17:20:10.586Z,26.90
2024-02-17T17:23:14.500Z,25.77
2024-02-17T17:26:30.310Z,26.67
2024-02-17T17:29:39.705Z,25.17
2024-02-17T17:32:43.986Z,27.60
2024-02-17T17:35:48.297Z,26.87
2024-02-17T17:38:52.924Z,27.43
2024-02-17T17:41:57.242Z,26.73
2024-02-17T17:45:01.963Z,23.50
2024-02-17T17:48:07.181Z,24.73
2024-02-17T17:51:11.551Z,25.20
2024-02-17T17:54:15.565Z,26.47
2024-02-17T17:57:21.292Z,25.90
2024-02-17T18:00:25.466Z,24.67
2024-02-17T18:03:32.998Z,25.63
2024-02-17T18:06:37.622Z,23.30
2024-02-17T18:09:41.690Z,23.90
2024-02-17T18:12:45.387Z,23.60
2024-02-17T18:15:49.738Z,26.67
2024-02-17T18:18:54.446Z,24.17
2024-02-17T18:21:58.789Z,24.93
2024-02-17T18:25:04.217Z,25.40
2024-02-17T18:28:09.554Z,23.57
2024-02-17T18:31:13.759Z,22.57
2024-02-17T18:34:18.257Z,24.30
2024-02-17T18:37:22.719Z,23.00
2024-02-17T18:40:26.948Z,24.77
2024-02-17T18:43:31.092Z,21.53
2024-02-17T18:46:41.126Z,22.10
2024-02-17T18:49:45.554Z,22.60
2024-02-17T18:52:50.084Z,21.70
2024-02-17T18:55:54.725Z,22.67
2024-02-17T18:58:58.843Z,22.23
2024-02-17T19:02:03.136Z,22.30
2024-02-17T19:05:07.586Z,21.20
2024-02-17T19:08:11.856Z,22.77
2024-02-17T19:11:16.128Z,21.90
2024-02-17T19:14:20.278Z,22.80
2024-02-17T19:17:24.219Z,21.50
2024-02-17T19:20:28.821Z,21.70
2024-02-17T19:23:32.912Z,20.27
2024-02-17T19:26:37.091Z,23.63
2024-02-17T19:29:41.165Z,22.40
2024-02-17T19:32:45.231Z,20.93
2024-02-17T19:35:49.172Z,21.40
2024-02-17T19:38:53.165Z,19.97
2024-02-17T19:41:57.216Z,20.57
2024-02-17T19:45:03.125Z,20.70
2024-02-17T19:48:07.585Z,22.33
2024-02-17T19:51:12.001Z,21.93
2024-02-17T19:54:16.821Z,22.27
2024-02-17T19:57:20.875Z,21.83
2024-02-17T20:00:25.369Z,21.93
2024-02-17T20:03:29.797Z,22.63
2024-02-17T20:06:34.560Z,22.93
2024-02-17T20:09:39.080Z,21.47
2024-02-17T20:12:43.081Z,21.50
2024-02-17T20:15:47.360Z,22.80
2024-02-17T20:18:52.127Z,21.23
2024-02-17T20:21:58.064Z,23.93
2024-02-17T20:25:01.940Z,21.97
2024-02-17T20:28:06.090Z,22.20
2024-02-17T20:31:10.230Z,23.30
2024-02-17T20:34:14.273Z,23.17
2024-02-17T20:37:18.107Z,21.50
2024-02-17T20:40:22.046Z,23.40
2024-02-17T20:43:26.206Z,23.77
2024-02-17T20:46:30.529Z,24.87
2024-02-17T20:49:34.775Z,24.23
2024-02-17T20:52:39.267Z,24.80
2024-02-17T20:55:43.507Z,23.57
2024-02-17T20:58:48.128Z,23.77
2024-02-17T21:01:52.409Z,23.87
2024-02-17T21:04:56.986Z,22.57
2024-02-17T21:08:01.305Z,22.77
2024-02-17T21:11:05.323Z,24.00
2024-02-17T21:14:10.171Z,21.87
2024-02-17T21:17:14.428Z,21.53
2024-02-17T21:20:18.651Z,22.20
2024-02-17T21:23:24.289Z,21.20
2024-02-17T21:26:28.489Z,24.87
2024-02-17T21:29:32.841Z,21.50
2024-02-17T21:32:37.077Z,22.80
2024-02-17T21:35:41.770Z,21.57
2024-02-17T21:38:45.727Z,22.67
2024-02-17T21:41:49.722Z,23.00
2024-02-17T21:44:54.166Z,22.43
2024-02-17T21:47:58.809Z,22.37
2024-02-17T21:51:02.775Z,21.30
2024-02-17T21:54:07.184Z,22.47
2024-02-17T21:57:11.416Z,22.40
2024-02-17T22:00:15.903Z,20.60
2024-02-17T22:03:20.971Z,22.60
2024-02-17T22:06:25.439Z,21.10
2024-02-17T22:09:29.655Z,21.67
2024-02-17T22:12:33.798Z,21.73
2024-02-17T22:15:38.341Z,23.23
2024-02-17T22:18:42.890Z,22.07
2024-02-17T22:21:47.716Z,23.27
2024-02-17T22:24:52.436Z,20.33
2024-02-17T22:27:56.791Z,22.67
2024-02-17T22:31:01.993Z,20.77
2024-02-17T22:34:06.646Z,21.50
2024-02-17T22:37:11.098Z,20.57
2024-02-17T22:40:15.510Z,19.80
2024-02-17T22:43:19.439Z,20.77
2024-02-17T22:46:23.602Z,20.43
2024-02-17T22:49:27.780Z,20.00
2024-02-17T22:52:32.309Z,20.50
2024-02-17T22:55:36.268Z,20.13
2024-02-17T22:58:40.470Z,18.97
2024-02-17T23:01:44.607Z,20.57
2024-02-17T23:04:49.121Z,21.50
2024-02-17T23:07:54.698Z,20.30
2024-02-17T23:10:59.286Z,20.27
2024-02-17T23:14:03.279Z,20.53
2024-02-17T23:17:08.455Z,21.13
2024-02-17T23:20:14.742Z,19.13
2024-02-17T23:23:19.352Z,21.90
2024-02-17T23:26:23.361Z,19.67
2024-02-17T23:29:27.551Z,19.93
2024-02-17T23:32:32.256Z,20.30
2024-02-17T23:35:36.537Z,20.43
2024-02-17T23:38:41.333Z,18.17
2024-02-17T23:41:45.308Z,20.40
2024-02-17T23:44:51.832Z,19.03
2024-02-17T23:47:55.948Z,19.37
2024-02-17T23:50:59.780Z,18.30
2024-02-17T23:54:03.798Z,18.50
2024-02-17T23:57:08.186Z,18.70
